createdAt,value
2022-10-25T00:08:25.204Z,14.94
2022-10-25T00:18:53.059Z,14.76
2022-10-25T00:29:19.053Z,14.71
2022-10-25T00:39:48.135Z,14.88
2022-10-25T00:50:22.707Z,14.86
2022-10-25T01:00:50.951Z,14.82
2022-10-25T01:11:18.748Z,14.91
2022-10-25T01:21:52.038Z,14.84
2022-10-25T01:32:25.465Z,14.72
2022-10-25T01:43:01.225Z,14.67
2022-10-25T01:53:28.569Z,14.63
2022-10-25T02:04:02.785Z,14.67
2022-10-25T02:14:35.733Z,14.70
2022-10-25T02:25:04.093Z,14.64
2022-10-25T02:35:31.720Z,14.73
2022-10-25T02:45:59.081Z,14.53
2022-10-25T02:56:26.544Z,14.49
2022-10-25T03:06:53.907Z,14.32
2022-10-25T03:17:21.249Z,14.25
2022-10-25T03:27:48.961Z,14.48
2022-10-25T03:38:14.845Z,14.70
2022-10-25T03:48:42.193Z,14.69
2022-10-25T03:59:09.627Z,14.65
2022-10-25T04:09:37.037Z,14.34
2022-10-25T04:20:04.796Z,14.24
2022-10-25T04:30:36.439Z,14.20
2022-10-25T04:41:06.329Z,14.20
2022-10-25T04:51:34.350Z,14.11
2022-10-25T05:02:01.945Z,14.00
2022-10-25T05:12:29.482Z,14.08
2022-10-25T05:22:56.869Z,14.38
2022-10-25T05:33:24.282Z,14.59
2022-10-25T05:43:51.581Z,14.45
2022-10-25T05:54:18.918Z,14.36
2022-10-25T06:04:51.531Z,14.29
2022-10-25T06:15:19.956Z,14.33
2022-10-25T06:25:47.317Z,14.12
2022-10-25T06:36:15.491Z,14.05
2022-10-25T06:47:15.333Z,14.00
2022-10-25T06:57:31.439Z,13.95
2022-10-25T07:07:58.775Z,13.89
2022-10-25T07:18:26.042Z,13.82
2022-10-25T07:28:55.088Z,13.82
2022-10-25T07:39:22.494Z,13.81
2022-10-25T07:49:49.805Z,13.90
2022-10-25T08:00:18.039Z,13.93
2022-10-25T08:10:46.133Z,13.94
2022-10-25T08:21:13.638Z,13.97
2022-10-25T08:31:41.253Z,14.15
2022-10-25T08:42:15.982Z,14.36
2022-10-25T08:52:46.981Z,14.40
2022-10-25T09:03:24.874Z,14.38
2022-10-25T09:14:00.783Z,14.42
2022-10-25T09:24:34.964Z,14.33
2022-10-25T09:35:04.750Z,14.30
2022-10-25T09:45:42.098Z,14.33
2022-10-25T09:56:10.044Z,14.52
2022-10-25T10:06:40.577Z,14.67
2022-10-25T10:17:13.855Z,14.82
2022-10-25T10:27:45.275Z,14.99
2022-10-25T10:38:32.513Z,15.10
2022-10-25T10:49:03.173Z,15.19
2022-10-25T10:59:35.091Z,15.36
2022-10-25T11:10:26.846Z,15.51
2022-10-25T11:21:00.432Z,15.72
2022-10-25T11:31:38.984Z,15.89
2022-10-25T11:42:21.101Z,16.02
2022-10-25T11:53:16.570Z,16.12
2022-10-25T12:04:01.143Z,16.17
2022-10-25T12:14:33.378Z,16.25
2022-10-25T12:25:02.464Z,16.43
2022-10-25T12:35:32.408Z,16.57
2022-10-25T12:46:29.545Z,16.85
2022-10-25T12:57:07.612Z,17.12
2022-10-25T13:07:37.257Z,17.28
2022-10-25T13:18:26.398Z,17.31
2022-10-25T13:28:55.957Z,17.29
2022-10-25T13:39:26.499Z,17.04
2022-10-25T13:49:53.939Z,16.86
2022-10-25T14:00:39.553Z,16.70
2022-10-25T14:11:11.274Z,16.63
2022-10-25T14:21:38.909Z,16.51
2022-10-25T14:32:14.615Z,16.38
2022-10-25T14:42:42.008Z,16.28
2022-10-25T14:53:17.269Z,16.13
2022-10-25T15:03:47.257Z,16.00
2022-10-25T15:14:23.422Z,15.88
2022-10-25T15:24:50.749Z,15.89
2022-10-25T15:35:26.709Z,15.86
2022-10-25T15:45:54.736Z,15.73
2022-10-25T15:56:22.832Z,15.77
2022-10-25T16:06:50.454Z,15.90
2022-10-25T16:17:17.799Z,16.03
2022-10-25T16:27:46.476Z,16.09
2022-10-25T16:38:14.236Z,15.95
2022-10-25T16:48:41.599Z,15.79
2022-10-25T16:59:09.017Z,15.66
2022-10-25T17:09:36.346Z,15.50
2022-10-25T17:20:03.861Z,15.05
2022-10-25T17:30:31.150Z,14.73
2022-10-25T17:40:58.478Z,14.86
2022-10-25T17:51:25.832Z,14.54
2022-10-25T18:01:53.220Z,14.45
2022-10-25T18:12:20.578Z,14.62
2022-10-25T18:22:47.941Z,14.24
2022-10-25T18:33:15.345Z,14.11
2022-10-25T18:43:42.788Z,14.14
2022-10-25T18:54:12.611Z,14.07
2022-10-25T19:04:39.914Z,13.94
2022-10-25T19:15:08.494Z,14.05
2022-10-25T19:25:35.870Z,14.06
2022-10-25T19:36:07.450Z,14.08
2022-10-25T19:46:35.752Z,13.96
2022-10-25T19:57:03.575Z,13.92
2022-10-25T20:07:31.091Z,13.80
2022-10-25T20:17:59.146Z,13.72
2022-10-25T20:28:25.106Z,13.58
2022-10-25T20:38:53.084Z,13.49
2022-10-25T20:49:18.907Z,13.44
2022-10-25T20:59:47.329Z,13.38
2022-10-25T21:10:14.619Z,13.13
2022-10-25T21:20:42.197Z,13.05
2022-10-25T21:31:11.882Z,13.15
2022-10-25T21:41:39.236Z,13.13
2022-10-25T21:52:07.104Z,13.06
2022-10-25T22:02:34.921Z,13.00
2022-10-25T22:13:02.399Z,13.12
2022-10-25T22:23:31.905Z,13.14
2022-10-25T22:34:01.494Z,13.15
2022-10-25T22:44:28.818Z,13.11
2022-10-25T22:54:56.119Z,13.14
2022-10-25T23:05:23.419Z,12.96
2022-10-25T23:15:50.646Z,12.80
2022-10-25T23:26:20.345Z,12.65
2022-10-25T23:36:47.681Z,12.50
2022-10-25T23:47:14.938Z,12.51
2022-10-25T23:57:42.638Z,12.54
